sensor_id;sensor_type;location;lat;lon;timestamp;temperature;humidity
80958;DHT22;70419;42.700;23.316;2023-11-19T00:02:09;5.80;57.80
80958;DHT22;70419;42.700;23.316;2023-11-19T00:04:38;5.80;58.10
80958;DHT22;70419;42.700;23.316;2023-11-19T00:07:06;5.90;57.70
80958;DHT22;70419;42.700;23.316;2023-11-19T00:09:33;5.90;57.20
80958;DHT22;70419;42.700;23.316;2023-11-19T00:12:00;5.90;57.40
80958;DHT22;70419;42.700;23.316;2023-11-19T00:14:26;5.90;57.30
80958;DHT22;70419;42.700;23.316;2023-11-19T00:16:52;6.00;57.40
80958;DHT22;70419;42.700;23.316;2023-11-19T00:19:19;5.90;57.30
80958;DHT22;70419;42.700;23.316;2023-11-19T00:21:45;6.00;57.80
80958;DHT22;70419;42.700;23.316;2023-11-19T00:24:11;6.00;57.10
80958;DHT22;70419;42.700;23.316;2023-11-19T00:26:38;6.00;56.70
80958;DHT22;70419;42.700;23.316;2023-11-19T00:29:04;6.00;56.50
80958;DHT22;70419;42.700;23.316;2023-11-19T00:31:32;6.10;57.00
80958;DHT22;70419;42.700;23.316;2023-11-19T00:33:57;6.00;56.50
80958;DHT22;70419;42.700;23.316;2023-11-19T00:36:23;5.90;56.90
80958;DHT22;70419;42.700;23.316;2023-11-19T00:38:49;5.90;57.10
80958;DHT22;70419;42.700;23.316;2023-11-19T00:41:16;5.80;57.40
80958;DHT22;70419;42.700;23.316;2023-11-19T00:43:42;5.70;57.70
80958;DHT22;70419;42.700;23.316;2023-11-19T00:46:08;5.70;58.10
80958;DHT22;70419;42.700;23.316;2023-11-19T00:48:36;5.60;57.00
80958;DHT22;70419;42.700;23.316;2023-11-19T00:51:03;5.60;58.30
80958;DHT22;70419;42.700;23.316;2023-11-19T00:53:30;5.50;58.60
80958;DHT22;70419;42.700;23.316;2023-11-19T00:56:00;5.40;59.00
80958;DHT22;70419;42.700;23.316;2023-11-19T00:58:26;5.50;58.80
80958;DHT22;70419;42.700;23.316;2023-11-19T01:00:52;5.60;58.70
80958;DHT22;70419;42.700;23.316;2023-11-19T01:03:18;5.60;58.60
80958;DHT22;70419;42.700;23.316;2023-11-19T01:05:44;5.60;58.70
80958;DHT22;70419;42.700;23.316;2023-11-19T01:08:12;5.70;59.00
80958;DHT22;70419;42.700;23.316;2023-11-19T01:10:38;5.70;58.10
80958;DHT22;70419;42.700;23.316;2023-11-19T01:13:03;5.70;58.50
80958;DHT22;70419;42.700;23.316;2023-11-19T01:15:32;5.60;58.60
80958;DHT22;70419;42.700;23.316;2023-11-19T01:17:57;5.60;58.80
80958;DHT22;70419;42.700;23.316;2023-11-19T01:20:26;5.70;58.20
80958;DHT22;70419;42.700;23.316;2023-11-19T01:22:52;5.80;57.90
80958;DHT22;70419;42.700;23.316;2023-11-19T01:25:17;5.80;57.40
80958;DHT22;70419;42.700;23.316;2023-11-19T01:27:43;5.70;58.00
80958;DHT22;70419;42.700;23.316;2023-11-19T01:30:09;5.60;58.20
80958;DHT22;70419;42.700;23.316;2023-11-19T01:32:38;5.60;58.10
80958;DHT22;70419;42.700;23.316;2023-11-19T01:35:04;5.70;58.00
80958;DHT22;70419;42.700;23.316;2023-11-19T01:37:30;5.70;58.00
80958;DHT22;70419;42.700;23.316;2023-11-19T01:39:57;5.60;57.80
80958;DHT22;70419;42.700;23.316;2023-11-19T01:42:23;5.70;58.00
80958;DHT22;70419;42.700;23.316;2023-11-19T01:44:58;5.80;57.80
80958;DHT22;70419;42.700;23.316;2023-11-19T01:47:27;5.90;56.90
80958;DHT22;70419;42.700;23.316;2023-11-19T01:49:54;5.80;57.00
80958;DHT22;70419;42.700;23.316;2023-11-19T01:52:22;5.60;57.20
80958;DHT22;70419;42.700;23.316;2023-11-19T01:54:49;5.50;58.10
80958;DHT22;70419;42.700;23.316;2023-11-19T01:57:18;5.50;58.20
80958;DHT22;70419;42.700;23.316;2023-11-19T01:59:44;5.40;58.00
80958;DHT22;70419;42.700;23.316;2023-11-19T02:02:10;5.40;58.20
80958;DHT22;70419;42.700;23.316;2023-11-19T02:04:38;5.50;58.00
80958;DHT22;70419;42.700;23.316;2023-11-19T02:07:04;5.40;58.60
80958;DHT22;70419;42.700;23.316;2023-11-19T02:09:30;5.30;57.90
80958;DHT22;70419;42.700;23.316;2023-11-19T02:11:56;5.30;58.10
80958;DHT22;70419;42.700;23.316;2023-11-19T02:14:25;5.40;58.00
80958;DHT22;70419;42.700;23.316;2023-11-19T02:16:52;5.30;57.50
80958;DHT22;70419;42.700;23.316;2023-11-19T02:19:21;5.30;57.90
80958;DHT22;70419;42.700;23.316;2023-11-19T02:21:46;5.30;57.80
80958;DHT22;70419;42.700;23.316;2023-11-19T02:24:14;5.20;57.80
80958;DHT22;70419;42.700;23.316;2023-11-19T02:26:55;5.20;57.90
80958;DHT22;70419;42.700;23.316;2023-11-19T02:29:24;5.10;58.00
80958;DHT22;70419;42.700;23.316;2023-11-19T02:31:49;5.10;58.20
80958;DHT22;70419;42.700;23.316;2023-11-19T02:34:15;5.10;58.20
80958;DHT22;70419;42.700;23.316;2023-11-19T02:36:41;5.00;59.00
80958;DHT22;70419;42.700;23.316;2023-11-19T02:39:08;4.90;59.10
80958;DHT22;70419;42.700;23.316;2023-11-19T02:41:36;4.70;59.10
80958;DHT22;70419;42.700;23.316;2023-11-19T02:44:06;4.70;60.00
80958;DHT22;70419;42.700;23.316;2023-11-19T02:46:32;4.70;60.00
80958;DHT22;70419;42.700;23.316;2023-11-19T02:48:58;4.60;60.30
80958;DHT22;70419;42.700;23.316;2023-11-19T02:51:24;4.60;61.20
80958;DHT22;70419;42.700;23.316;2023-11-19T02:53:50;4.50;60.30
80958;DHT22;70419;42.700;23.316;2023-11-19T02:56:15;4.50;60.90
80958;DHT22;70419;42.700;23.316;2023-11-19T02:58:45;4.50;60.80
80958;DHT22;70419;42.700;23.316;2023-11-19T03:01:12;4.50;61.00
80958;DHT22;70419;42.700;23.316;2023-11-19T03:03:48;4.40;61.40
80958;DHT22;70419;42.700;23.316;2023-11-19T03:06:19;4.40;60.90
80958;DHT22;70419;42.700;23.316;2023-11-19T03:08:46;4.40;61.50
80958;DHT22;70419;42.700;23.316;2023-11-19T03:11:12;4.50;61.20
80958;DHT22;70419;42.700;23.316;2023-11-19T03:13:38;4.50;60.40
80958;DHT22;70419;42.700;23.316;2023-11-19T03:16:03;4.60;60.60
80958;DHT22;70419;42.700;23.316;2023-11-19T03:18:29;4.50;61.90
80958;DHT22;70419;42.700;23.316;2023-11-19T03:20:55;4.40;60.60
80958;DHT22;70419;42.700;23.316;2023-11-19T03:23:21;4.40;60.90
80958;DHT22;70419;42.700;23.316;2023-11-19T03:25:48;4.40;61.20
80958;DHT22;70419;42.700;23.316;2023-11-19T03:28:14;4.40;61.20
80958;DHT22;70419;42.700;23.316;2023-11-19T03:30:40;4.50;60.80
80958;DHT22;70419;42.700;23.316;2023-11-19T03:33:05;4.50;61.10
80958;DHT22;70419;42.700;23.316;2023-11-19T03:35:31;4.50;60.90
80958;DHT22;70419;42.700;23.316;2023-11-19T03:37:58;4.50;60.90
80958;DHT22;70419;42.700;23.316;2023-11-19T03:40:24;4.50;60.70
80958;DHT22;70419;42.700;23.316;2023-11-19T03:42:50;4.60;60.60
80958;DHT22;70419;42.700;23.316;2023-11-19T03:45:16;4.60;60.60
80958;DHT22;70419;42.700;23.316;2023-11-19T03:47:42;4.60;60.20
80958;DHT22;70419;42.700;23.316;2023-11-19T03:50:08;4.60;60.60
80958;DHT22;70419;42.700;23.316;2023-11-19T03:52:35;4.60;60.40
80958;DHT22;70419;42.700;23.316;2023-11-19T03:55:01;4.60;60.60
80958;DHT22;70419;42.700;23.316;2023-11-19T03:57:27;4.50;60.80
80958;DHT22;70419;42.700;23.316;2023-11-19T03:59:55;4.60;61.00
80958;DHT22;70419;42.700;23.316;2023-11-19T04:02:21;4.60;60.20
80958;DHT22;70419;42.700;23.316;2023-11-19T04:04:47;4.70;60.20
80958;DHT22;70419;42.700;23.316;2023-11-19T04:07:13;4.70;60.30
80958;DHT22;70419;42.700;23.316;2023-11-19T04:09:39;4.70;60.00
80958;DHT22;70419;42.700;23.316;2023-11-19T04:12:05;4.80;60.20
80958;DHT22;70419;42.700;23.316;2023-11-19T04:14:31;4.90;59.50
80958;DHT22;70419;42.700;23.316;2023-11-19T04:16:56;5.00;59.50
80958;DHT22;70419;42.700;23.316;2023-11-19T04:19:22;5.10;59.20
80958;DHT22;70419;42.700;23.316;2023-11-19T04:21:48;5.30;58.30
80958;DHT22;70419;42.700;23.316;2023-11-19T04:24:14;5.30;58.00
80958;DHT22;70419;42.700;23.316;2023-11-19T04:26:42;5.40;57.80
80958;DHT22;70419;42.700;23.316;2023-11-19T04:29:10;5.50;57.90
80958;DHT22;70419;42.700;23.316;2023-11-19T04:31:36;5.60;56.80
80958;DHT22;70419;42.700;23.316;2023-11-19T04:34:02;5.50;57.10
80958;DHT22;70419;42.700;23.316;2023-11-19T04:36:28;5.40;57.70
80958;DHT22;70419;42.700;23.316;2023-11-19T04:38:55;5.50;57.90
80958;DHT22;70419;42.700;23.316;2023-11-19T04:41:21;5.40;58.60
80958;DHT22;70419;42.700;23.316;2023-11-19T04:43:47;5.40;57.40
80958;DHT22;70419;42.700;23.316;2023-11-19T04:46:12;5.50;57.10
80958;DHT22;70419;42.700;23.316;2023-11-19T04:48:38;5.40;57.20
80958;DHT22;70419;42.700;23.316;2023-11-19T04:51:05;5.40;57.00
80958;DHT22;70419;42.700;23.316;2023-11-19T04:53:31;5.40;57.20
80958;DHT22;70419;42.700;23.316;2023-11-19T04:55:56;5.50;57.10
80958;DHT22;70419;42.700;23.316;2023-11-19T04:58:22;5.50;56.80
80958;DHT22;70419;42.700;23.316;2023-11-19T05:00:48;5.50;56.90
80958;DHT22;70419;42.700;23.316;2023-11-19T05:03:14;5.60;57.00
80958;DHT22;70419;42.700;23.316;2023-11-19T05:05:39;5.60;56.50
80958;DHT22;70419;42.700;23.316;2023-11-19T05:08:05;5.60;56.80
80958;DHT22;70419;42.700;23.316;2023-11-19T05:10:31;5.60;56.50
80958;DHT22;70419;42.700;23.316;2023-11-19T05:12:57;5.60;56.20
80958;DHT22;70419;42.700;23.316;2023-11-19T05:15:25;5.50;56.00
80958;DHT22;70419;42.700;23.316;2023-11-19T05:17:51;5.60;56.20
80958;DHT22;70419;42.700;23.316;2023-11-19T05:20:17;5.50;56.20
80958;DHT22;70419;42.700;23.316;2023-11-19T05:22:43;5.50;56.70
80958;DHT22;70419;42.700;23.316;2023-11-19T05:25:09;5.60;56.80
80958;DHT22;70419;42.700;23.316;2023-11-19T05:27:37;5.60;56.50
80958;DHT22;70419;42.700;23.316;2023-11-19T05:30:04;5.70;56.30
80958;DHT22;70419;42.700;23.316;2023-11-19T05:32:33;5.60;56.40
80958;DHT22;70419;42.700;23.316;2023-11-19T05:34:59;5.60;55.90
80958;DHT22;70419;42.700;23.316;2023-11-19T05:37:24;5.60;57.00
80958;DHT22;70419;42.700;23.316;2023-11-19T05:39:50;5.40;56.00
80958;DHT22;70419;42.700;23.316;2023-11-19T05:42:16;5.50;56.30
80958;DHT22;70419;42.700;23.316;2023-11-19T05:44:42;5.50;56.10
80958;DHT22;70419;42.700;23.316;2023-11-19T05:47:08;5.50;56.30
80958;DHT22;70419;42.700;23.316;2023-11-19T05:49:34;5.50;56.10
80958;DHT22;70419;42.700;23.316;2023-11-19T05:52:00;5.60;55.90
80958;DHT22;70419;42.700;23.316;2023-11-19T05:54:28;5.60;55.70
80958;DHT22;70419;42.700;23.316;2023-11-19T05:56:54;5.70;55.90
80958;DHT22;70419;42.700;23.316;2023-11-19T05:59:20;5.70;55.60
80958;DHT22;70419;42.700;23.316;2023-11-19T06:01:48;5.70;55.70
80958;DHT22;70419;42.700;23.316;2023-11-19T06:04:14;5.80;55.10
80958;DHT22;70419;42.700;23.316;2023-11-19T06:06:39;5.60;55.70
80958;DHT22;70419;42.700;23.316;2023-11-19T06:09:06;5.70;55.90
80958;DHT22;70419;42.700;23.316;2023-11-19T06:11:33;5.80;55.50
80958;DHT22;70419;42.700;23.316;2023-11-19T06:13:59;6.00;54.70
80958;DHT22;70419;42.700;23.316;2023-11-19T06:16:25;6.10;54.50
80958;DHT22;70419;42.700;23.316;2023-11-19T06:18:51;6.00;55.10
80958;DHT22;70419;42.700;23.316;2023-11-19T06:21:17;5.90;54.90
80958;DHT22;70419;42.700;23.316;2023-11-19T06:23:42;5.80;55.40
80958;DHT22;70419;42.700;23.316;2023-11-19T06:26:08;5.70;55.40
80958;DHT22;70419;42.700;23.316;2023-11-19T06:28:34;5.70;55.40
80958;DHT22;70419;42.700;23.316;2023-11-19T06:31:00;5.50;55.80
80958;DHT22;70419;42.700;23.316;2023-11-19T06:33:26;5.50;56.00
80958;DHT22;70419;42.700;23.316;2023-11-19T06:35:52;5.50;55.80
80958;DHT22;70419;42.700;23.316;2023-11-19T06:38:20;5.60;56.10
80958;DHT22;70419;42.700;23.316;2023-11-19T06:40:46;5.70;55.80
80958;DHT22;70419;42.700;23.316;2023-11-19T06:43:11;5.80;55.50
80958;DHT22;70419;42.700;23.316;2023-11-19T06:45:37;5.90;54.70
80958;DHT22;70419;42.700;23.316;2023-11-19T06:48:03;6.00;54.60
80958;DHT22;70419;42.700;23.316;2023-11-19T06:50:30;6.10;54.50
80958;DHT22;70419;42.700;23.316;2023-11-19T06:52:57;6.10;54.20
80958;DHT22;70419;42.700;23.316;2023-11-19T06:55:23;6.00;53.90
80958;DHT22;70419;42.700;23.316;2023-11-19T06:57:49;6.10;54.20
80958;DHT22;70419;42.700;23.316;2023-11-19T07:00:15;6.20;54.00
80958;DHT22;70419;42.700;23.316;2023-11-19T07:02:42;6.30;53.10
80958;DHT22;70419;42.700;23.316;2023-11-19T07:05:10;6.30;52.80
80958;DHT22;70419;42.700;23.316;2023-11-19T07:07:37;6.30;52.40
80958;DHT22;70419;42.700;23.316;2023-11-19T07:10:03;6.40;52.10
80958;DHT22;70419;42.700;23.316;2023-11-19T07:12:31;6.30;52.20
80958;DHT22;70419;42.700;23.316;2023-11-19T07:14:56;6.10;52.80
80958;DHT22;70419;42.700;23.316;2023-11-19T07:17:22;6.00;53.60
80958;DHT22;70419;42.700;23.316;2023-11-19T07:19:50;6.10;53.30
80958;DHT22;70419;42.700;23.316;2023-11-19T07:22:16;6.20;53.30
80958;DHT22;70419;42.700;23.316;2023-11-19T07:24:43;6.20;53.10
80958;DHT22;70419;42.700;23.316;2023-11-19T07:27:09;6.20;52.70
80958;DHT22;70419;42.700;23.316;2023-11-19T07:29:35;6.20;52.70
80958;DHT22;70419;42.700;23.316;2023-11-19T07:32:01;6.40;52.10
80958;DHT22;70419;42.700;23.316;2023-11-19T07:34:27;6.50;52.30
80958;DHT22;70419;42.700;23.316;2023-11-19T07:36:54;6.70;51.70
80958;DHT22;70419;42.700;23.316;2023-11-19T07:39:24;6.70;51.30
80958;DHT22;70419;42.700;23.316;2023-11-19T07:41:50;6.80;51.20
80958;DHT22;70419;42.700;23.316;2023-11-19T07:44:16;6.80;50.90
80958;DHT22;70419;42.700;23.316;2023-11-19T07:46:42;6.80;50.50
80958;DHT22;70419;42.700;23.316;2023-11-19T07:49:07;6.90;50.50
80958;DHT22;70419;42.700;23.316;2023-11-19T07:51:35;7.00;50.30
80958;DHT22;70419;42.700;23.316;2023-11-19T07:54:01;7.10;49.60
80958;DHT22;70419;42.700;23.316;2023-11-19T07:56:26;7.00;49.80
80958;DHT22;70419;42.700;23.316;2023-11-19T07:58:52;6.90;50.10
80958;DHT22;70419;42.700;23.316;2023-11-19T08:01:18;7.10;50.00
80958;DHT22;70419;42.700;23.316;2023-11-19T08:03:44;7.00;49.90
80958;DHT22;70419;42.700;23.316;2023-11-19T08:06:10;7.10;49.40
80958;DHT22;70419;42.700;23.316;2023-11-19T08:08:36;7.10;49.60
80958;DHT22;70419;42.700;23.316;2023-11-19T08:11:04;7.10;49.40
80958;DHT22;70419;42.700;23.316;2023-11-19T08:13:30;7.20;49.20
80958;DHT22;70419;42.700;23.316;2023-11-19T08:15:57;7.40;48.90
80958;DHT22;70419;42.700;23.316;2023-11-19T08:18:24;7.60;49.20
80958;DHT22;70419;42.700;23.316;2023-11-19T08:20:50;7.80;47.70
80958;DHT22;70419;42.700;23.316;2023-11-19T08:23:19;7.60;47.40
80958;DHT22;70419;42.700;23.316;2023-11-19T08:25:46;7.20;48.10
80958;DHT22;70419;42.700;23.316;2023-11-19T08:28:12;7.00;49.30
80958;DHT22;70419;42.700;23.316;2023-11-19T08:30:39;6.90;49.40
80958;DHT22;70419;42.700;23.316;2023-11-19T08:33:05;6.90;49.60
80958;DHT22;70419;42.700;23.316;2023-11-19T08:35:32;6.80;49.50
80958;DHT22;70419;42.700;23.316;2023-11-19T08:37:58;6.80;50.00
80958;DHT22;70419;42.700;23.316;2023-11-19T08:40:24;6.80;50.00
80958;DHT22;70419;42.700;23.316;2023-11-19T08:42:51;7.00;49.60
80958;DHT22;70419;42.700;23.316;2023-11-19T08:45:17;6.90;49.30
80958;DHT22;70419;42.700;23.316;2023-11-19T08:47:43;7.00;49.50
80958;DHT22;70419;42.700;23.316;2023-11-19T08:50:11;6.90;49.20
80958;DHT22;70419;42.700;23.316;2023-11-19T08:52:37;6.70;50.00
80958;DHT22;70419;42.700;23.316;2023-11-19T08:55:03;6.80;49.50
80958;DHT22;70419;42.700;23.316;2023-11-19T08:57:31;7.00;49.20
80958;DHT22;70419;42.700;23.316;2023-11-19T08:59:56;7.30;48.50
80958;DHT22;70419;42.700;23.316;2023-11-19T09:02:22;7.50;48.10
80958;DHT22;70419;42.700;23.316;2023-11-19T09:04:48;7.60;46.90
80958;DHT22;70419;42.700;23.316;2023-11-19T09:07:14;7.80;46.50
80958;DHT22;70419;42.700;23.316;2023-11-19T09:09:40;8.20;46.40
80958;DHT22;70419;42.700;23.316;2023-11-19T09:12:06;8.70;45.60
80958;DHT22;70419;42.700;23.316;2023-11-19T09:14:32;8.90;44.60
80958;DHT22;70419;42.700;23.316;2023-11-19T09:16:57;8.80;44.50
80958;DHT22;70419;42.700;23.316;2023-11-19T09:19:24;8.90;44.60
80958;DHT22;70419;42.700;23.316;2023-11-19T09:21:50;8.70;44.10
80958;DHT22;70419;42.700;23.316;2023-11-19T09:24:16;8.60;44.70
80958;DHT22;70419;42.700;23.316;2023-11-19T09:26:42;8.30;45.10
80958;DHT22;70419;42.700;23.316;2023-11-19T09:29:08;8.20;45.40
80958;DHT22;70419;42.700;23.316;2023-11-19T09:31:34;8.00;46.00
80958;DHT22;70419;42.700;23.316;2023-11-19T09:34:01;7.80;46.80
80958;DHT22;70419;42.700;23.316;2023-11-19T09:36:26;7.80;47.00
80958;DHT22;70419;42.700;23.316;2023-11-19T09:38:52;7.90;46.80
80958;DHT22;70419;42.700;23.316;2023-11-19T09:41:18;7.70;46.80
80958;DHT22;70419;42.700;23.316;2023-11-19T09:43:45;7.60;46.80
80958;DHT22;70419;42.700;23.316;2023-11-19T09:46:13;7.60;47.10
80958;DHT22;70419;42.700;23.316;2023-11-19T09:48:41;7.70;46.70
80958;DHT22;70419;42.700;23.316;2023-11-19T09:51:09;7.70;46.60
80958;DHT22;70419;42.700;23.316;2023-11-19T09:53:36;7.80;46.00
80958;DHT22;70419;42.700;23.316;2023-11-19T09:56:03;8.00;45.90
80958;DHT22;70419;42.700;23.316;2023-11-19T09:58:32;8.30;45.20
80958;DHT22;70419;42.700;23.316;2023-11-19T10:00:58;8.40;44.90
80958;DHT22;70419;42.700;23.316;2023-11-19T10:03:26;8.70;44.20
80958;DHT22;70419;42.700;23.316;2023-11-19T10:05:54;8.60;44.40
80958;DHT22;70419;42.700;23.316;2023-11-19T10:08:21;8.60;44.60
80958;DHT22;70419;42.700;23.316;2023-11-19T10:10:47;8.70;44.20
80958;DHT22;70419;42.700;23.316;2023-11-19T10:13:13;8.60;44.10
80958;DHT22;70419;42.700;23.316;2023-11-19T10:15:40;8.40;45.00
80958;DHT22;70419;42.700;23.316;2023-11-19T10:18:06;8.40;44.90
80958;DHT22;70419;42.700;23.316;2023-11-19T10:20:42;8.20;45.10
80958;DHT22;70419;42.700;23.316;2023-11-19T10:23:09;8.30;45.70
80958;DHT22;70419;42.700;23.316;2023-11-19T10:25:36;8.20;44.90
80958;DHT22;70419;42.700;23.316;2023-11-19T10:28:03;8.20;45.10
80958;DHT22;70419;42.700;23.316;2023-11-19T10:30:29;8.10;45.70
80958;DHT22;70419;42.700;23.316;2023-11-19T10:33:05;8.30;46.10
80958;DHT22;70419;42.700;23.316;2023-11-19T10:35:34;8.50;45.20
80958;DHT22;70419;42.700;23.316;2023-11-19T10:38:13;8.70;44.80
80958;DHT22;70419;42.700;23.316;2023-11-19T10:40:41;9.00;44.30
80958;DHT22;70419;42.700;23.316;2023-11-19T10:43:07;9.30;42.80
80958;DHT22;70419;42.700;23.316;2023-11-19T10:45:37;9.70;42.00
80958;DHT22;70419;42.700;23.316;2023-11-19T10:48:04;9.90;41.50
80958;DHT22;70419;42.700;23.316;2023-11-19T10:50:36;10.30;41.00
80958;DHT22;70419;42.700;23.316;2023-11-19T10:53:04;10.90;39.80
80958;DHT22;70419;42.700;23.316;2023-11-19T10:55:32;11.90;37.20
80958;DHT22;70419;42.700;23.316;2023-11-19T10:58:04;12.80;35.50
80958;DHT22;70419;42.700;23.316;2023-11-19T11:00:38;13.00;34.10
80958;DHT22;70419;42.700;23.316;2023-11-19T11:03:10;13.20;34.10
80958;DHT22;70419;42.700;23.316;2023-11-19T11:05:38;13.70;33.60
80958;DHT22;70419;42.700;23.316;2023-11-19T11:08:06;15.70;30.90
80958;DHT22;70419;42.700;23.316;2023-11-19T11:10:36;19.00;26.90
80958;DHT22;70419;42.700;23.316;2023-11-19T11:13:05;21.80;24.60
80958;DHT22;70419;42.700;23.316;2023-11-19T11:15:31;24.50;21.40
80958;DHT22;70419;42.700;23.316;2023-11-19T11:18:01;27.30;19.20
80958;DHT22;70419;42.700;23.316;2023-11-19T11:20:30;29.40;17.70
80958;DHT22;70419;42.700;23.316;2023-11-19T11:26:29;29.80;16.40
80958;DHT22;70419;42.700;23.316;2023-11-19T11:29:05;29.40;16.20
80958;DHT22;70419;42.700;23.316;2023-11-19T11:31:54;29.70;16.50
80958;DHT22;70419;42.700;23.316;2023-11-19T11:34:48;29.60;16.10
80958;DHT22;70419;42.700;23.316;2023-11-19T11:37:30;30.60;15.80
80958;DHT22;70419;42.700;23.316;2023-11-19T11:39:57;30.40;15.50
80958;DHT22;70419;42.700;23.316;2023-11-19T11:42:33;30.40;15.60
80958;DHT22;70419;42.700;23.316;2023-11-19T11:45:08;31.50;14.80
80958;DHT22;70419;42.700;23.316;2023-11-19T11:50:20;33.80;14.40
80958;DHT22;70419;42.700;23.316;2023-11-19T11:55:53;34.70;13.20
80958;DHT22;70419;42.700;23.316;2023-11-19T11:58:21;35.40;13.50
80958;DHT22;70419;42.700;23.316;2023-11-19T12:00:52;36.40;12.70
80958;DHT22;70419;42.700;23.316;2023-11-19T12:03:20;37.50;12.40
80958;DHT22;70419;42.700;23.316;2023-11-19T12:05:48;36.80;12.40
80958;DHT22;70419;42.700;23.316;2023-11-19T12:08:18;37.40;12.20
80958;DHT22;70419;42.700;23.316;2023-11-19T12:10:48;38.00;12.10
80958;DHT22;70419;42.700;23.316;2023-11-19T12:13:14;38.20;11.90
80958;DHT22;70419;42.700;23.316;2023-11-19T12:18:39;38.50;11.60
80958;DHT22;70419;42.700;23.316;2023-11-19T12:21:06;38.40;11.40
80958;DHT22;70419;42.700;23.316;2023-11-19T12:23:34;38.60;11.30
80958;DHT22;70419;42.700;23.316;2023-11-19T12:26:00;38.20;11.20
80958;DHT22;70419;42.700;23.316;2023-11-19T12:28:26;38.20;11.40
80958;DHT22;70419;42.700;23.316;2023-11-19T12:30:53;38.40;11.30
80958;DHT22;70419;42.700;23.316;2023-11-19T12:33:19;38.60;11.30
80958;DHT22;70419;42.700;23.316;2023-11-19T12:35:47;39.10;11.20
80958;DHT22;70419;42.700;23.316;2023-11-19T12:38:21;39.50;11.30
80958;DHT22;70419;42.700;23.316;2023-11-19T12:40:47;39.50;11.00
80958;DHT22;70419;42.700;23.316;2023-11-19T12:43:23;38.70;11.00
80958;DHT22;70419;42.700;23.316;2023-11-19T12:45:49;38.10;11.50
80958;DHT22;70419;42.700;23.316;2023-11-19T12:48:15;37.70;11.40
80958;DHT22;70419;42.700;23.316;2023-11-19T12:51:01;37.20;11.30
80958;DHT22;70419;42.700;23.316;2023-11-19T12:53:28;36.10;11.90
80958;DHT22;70419;42.700;23.316;2023-11-19T12:55:54;34.40;12.50
80958;DHT22;70419;42.700;23.316;2023-11-19T12:58:42;32.60;13.20
80958;DHT22;70419;42.700;23.316;2023-11-19T13:01:09;31.70;13.70
80958;DHT22;70419;42.700;23.316;2023-11-19T13:03:36;31.60;13.80
80958;DHT22;70419;42.700;23.316;2023-11-19T13:06:06;32.00;13.50
80958;DHT22;70419;42.700;23.316;2023-11-19T13:08:43;32.30;13.50
80958;DHT22;70419;42.700;23.316;2023-11-19T13:11:12;32.70;13.30
80958;DHT22;70419;42.700;23.316;2023-11-19T13:13:56;32.90;13.30
80958;DHT22;70419;42.700;23.316;2023-11-19T13:16:24;33.30;13.20
80958;DHT22;70419;42.700;23.316;2023-11-19T13:18:50;33.80;12.90
80958;DHT22;70419;42.700;23.316;2023-11-19T13:21:17;33.70;12.90
80958;DHT22;70419;42.700;23.316;2023-11-19T13:23:43;33.20;13.00
80958;DHT22;70419;42.700;23.316;2023-11-19T13:26:10;32.50;13.30
80958;DHT22;70419;42.700;23.316;2023-11-19T13:28:37;32.10;13.40
80958;DHT22;70419;42.700;23.316;2023-11-19T13:31:03;31.90;13.60
80958;DHT22;70419;42.700;23.316;2023-11-19T13:33:30;32.00;13.50
80958;DHT22;70419;42.700;23.316;2023-11-19T13:35:56;31.20;13.90
80958;DHT22;70419;42.700;23.316;2023-11-19T13:38:23;30.30;14.40
80958;DHT22;70419;42.700;23.316;2023-11-19T13:40:50;30.50;14.40
80958;DHT22;70419;42.700;23.316;2023-11-19T13:43:17;30.90;14.30
80958;DHT22;70419;42.700;23.316;2023-11-19T13:45:43;30.20;14.20
80958;DHT22;70419;42.700;23.316;2023-11-19T13:48:09;29.60;14.70
80958;DHT22;70419;42.700;23.316;2023-11-19T13:50:35;29.10;15.20
80958;DHT22;70419;42.700;23.316;2023-11-19T13:53:01;28.80;15.20
80958;DHT22;70419;42.700;23.316;2023-11-19T13:55:27;28.70;15.40
80958;DHT22;70419;42.700;23.316;2023-11-19T13:57:53;28.50;15.20
80958;DHT22;70419;42.700;23.316;2023-11-19T14:00:23;27.60;15.90
80958;DHT22;70419;42.700;23.316;2023-11-19T14:02:49;26.00;17.00
80958;DHT22;70419;42.700;23.316;2023-11-19T14:05:15;24.30;18.10
80958;DHT22;70419;42.700;23.316;2023-11-19T14:07:43;22.80;19.40
80958;DHT22;70419;42.700;23.316;2023-11-19T14:10:10;21.50;20.70
80958;DHT22;70419;42.700;23.316;2023-11-19T14:12:37;20.10;21.80
80958;DHT22;70419;42.700;23.316;2023-11-19T14:17:40;17.80;23.50
80958;DHT22;70419;42.700;23.316;2023-11-19T14:20:06;17.10;25.30
80958;DHT22;70419;42.700;23.316;2023-11-19T14:22:43;16.90;25.60
80958;DHT22;70419;42.700;23.316;2023-11-19T14:25:10;16.50;26.20
80958;DHT22;70419;42.700;23.316;2023-11-19T14:27:40;15.90;26.90
80958;DHT22;70419;42.700;23.316;2023-11-19T14:30:08;15.20;27.50
80958;DHT22;70419;42.700;23.316;2023-11-19T14:32:37;14.50;28.70
80958;DHT22;70419;42.700;23.316;2023-11-19T14:35:04;13.80;29.90
80958;DHT22;70419;42.700;23.316;2023-11-19T14:37:30;13.10;31.30
80958;DHT22;70419;42.700;23.316;2023-11-19T14:39:56;12.40;32.20
80958;DHT22;70419;42.700;23.316;2023-11-19T14:42:23;11.90;33.90
80958;DHT22;70419;42.700;23.316;2023-11-19T14:44:51;11.50;34.80
80958;DHT22;70419;42.700;23.316;2023-11-19T14:47:18;10.90;36.00
80958;DHT22;70419;42.700;23.316;2023-11-19T14:49:44;10.60;36.70
80958;DHT22;70419;42.700;23.316;2023-11-19T14:52:10;10.20;38.50
80958;DHT22;70419;42.700;23.316;2023-11-19T14:54:37;9.90;38.90
80958;DHT22;70419;42.700;23.316;2023-11-19T14:57:05;9.70;39.30
80958;DHT22;70419;42.700;23.316;2023-11-19T14:59:32;9.40;40.10
80958;DHT22;70419;42.700;23.316;2023-11-19T15:02:00;9.30;40.20
80958;DHT22;70419;42.700;23.316;2023-11-19T15:04:28;9.10;40.60
80958;DHT22;70419;42.700;23.316;2023-11-19T15:06:56;8.90;41.20
80958;DHT22;70419;42.700;23.316;2023-11-19T15:09:22;8.70;41.70
80958;DHT22;70419;42.700;23.316;2023-11-19T15:11:49;8.60;42.40
80958;DHT22;70419;42.700;23.316;2023-11-19T15:14:17;8.40;43.10
80958;DHT22;70419;42.700;23.316;2023-11-19T15:16:46;8.20;43.40
80958;DHT22;70419;42.700;23.316;2023-11-19T15:19:12;8.00;43.70
80958;DHT22;70419;42.700;23.316;2023-11-19T15:21:40;8.00;44.80
80958;DHT22;70419;42.700;23.316;2023-11-19T15:24:06;7.80;44.90
80958;DHT22;70419;42.700;23.316;2023-11-19T15:26:33;7.70;45.90
80958;DHT22;70419;42.700;23.316;2023-11-19T15:28:59;7.60;46.10
80958;DHT22;70419;42.700;23.316;2023-11-19T15:31:26;7.50;46.50
80958;DHT22;70419;42.700;23.316;2023-11-19T15:33:52;7.40;46.40
80958;DHT22;70419;42.700;23.316;2023-11-19T15:36:18;7.30;47.10
80958;DHT22;70419;42.700;23.316;2023-11-19T15:38:44;7.20;47.70
80958;DHT22;70419;42.700;23.316;2023-11-19T15:41:10;7.10;48.10
80958;DHT22;70419;42.700;23.316;2023-11-19T15:43:36;7.00;47.90